createdAt,value
2023-02-06T00:00:02.532Z,80.10950080243835
2023-02-06T00:15:02.203Z,80.15508189598106
2023-02-06T00:30:01.913Z,80.10152991363032
2023-02-06T00:45:01.613Z,80.04220197446998
2023-02-06T01:00:02.297Z,79.84450252480049
2023-02-06T01:15:01.900Z,79.79131741308126
2023-02-06T01:30:01.632Z,79.74346356308769
2023-02-06T01:45:02.256Z,79.6083222558263
2023-02-06T02:00:01.952Z,79.48308228199414
2023-02-06T02:15:01.606Z,79.44362824544237
2023-02-06T02:30:02.303Z,79.37059239868482
2023-02-06T02:45:01.926Z,79.28904401771386
2023-02-06T03:00:02.572Z,78.89984232724827
2023-02-06T03:15:02.199Z,79.23052159323677
2023-02-06T03:30:01.851Z,79.30110620564633
2023-02-06T03:45:02.546Z,79.2067039002275
2023-02-06T04:00:02.274Z,79.15401767435837
2023-02-06T04:15:01.917Z,79.04886859238829
2023-02-06T04:30:01.668Z,78.88871513260425
2023-02-06T04:45:02.289Z,78.9994854351515
2023-02-06T05:00:02.006Z,79.36479788634881
2023-02-06T05:15:01.743Z,79.36171428987974
2023-02-06T05:30:01.923Z,79.29960147441585
2023-02-06T05:45:01.585Z,79.7354583902813
2023-02-06T06:00:02.310Z,79.85721997485466
2023-02-06T06:15:01.998Z,80.35437630668441
2023-02-06T06:30:01.693Z,80.68749016123567
2023-02-06T06:45:02.375Z,80.67183790822014
2023-02-06T07:00:02.110Z,80.20436112592483
2023-02-06T07:15:01.798Z,79.77695435035504
2023-02-06T07:30:04.004Z,79.83598874478413
2023-02-06T07:45:01.668Z,79.8347268318404
2023-02-06T08:00:02.359Z,79.46557071296877
2023-02-06T08:15:02.058Z,79.28995869772855
2023-02-06T08:30:01.737Z,79.42571131483874
2023-02-06T08:45:02.445Z,79.1959000025707
2023-02-06T09:00:02.120Z,79.36628191192708
2023-02-06T09:15:01.803Z,79.28340123249957
2023-02-06T09:30:02.528Z,79.71119311758541
2023-02-06T09:45:02.232Z,79.80788169988926
2023-02-06T10:00:01.957Z,79.78266285366111
2023-02-06T10:15:01.680Z,79.77894715624318
2023-02-06T10:30:02.384Z,79.92812232830543
2023-02-06T10:45:18.370Z,80.3201073625128
2023-02-06T11:00:01.933Z,80.5006014057528
2023-02-06T11:15:01.642Z,80.25185462239533
2023-02-06T11:30:02.433Z,80.2930092476696
2023-02-06T11:45:02.137Z,79.77287842462073
2023-02-06T12:00:01.846Z,80.65250559349242
2023-02-06T12:15:18.235Z,79.90466718594801
2023-02-06T12:30:02.364Z,80.99420796857375
2023-02-06T12:45:02.051Z,80.86909344095301
2023-02-06T13:00:01.764Z,81.53173819363094
2023-02-06T13:15:02.488Z,81.20231059375247
2023-02-06T13:30:02.174Z,81.26358938797273
2023-02-06T13:45:01.836Z,81.56863583101175
2023-02-06T14:00:02.526Z,81.05791150216669
2023-02-06T14:15:02.204Z,81.59313346002277
2023-02-06T14:30:01.948Z,81.26735009188695
2023-02-06T14:45:01.644Z,82.06951150243607
2023-02-06T15:00:02.338Z,82.11743052706328
2023-02-06T15:15:02.021Z,81.98921228302491
2023-02-06T15:30:01.797Z,81.39269166638014
2023-02-06T15:45:02.514Z,81.45018819632207
2023-02-06T16:00:02.215Z,82.71093209871572
2023-02-06T16:15:01.900Z,82.90625488696884
2023-02-06T16:30:01.741Z,82.78403645768735
2023-02-06T16:45:02.414Z,82.72404517118261
2023-02-06T17:00:02.158Z,82.81519160753531
2023-02-06T17:15:01.782Z,82.83537835226718
2023-02-06T17:30:02.508Z,82.65382771667359
2023-02-06T17:45:02.153Z,82.74307481636038
2023-02-06T18:00:01.824Z,82.51601344338992
2023-02-06T18:15:02.440Z,82.29639428993613
2023-02-06T18:30:02.100Z,82.02614289491748
2023-02-06T18:45:04.041Z,82.51355680126095
2023-02-06T19:00:01.967Z,82.37164043765465
2023-02-06T19:15:01.713Z,84.70394545340508
2023-02-06T19:30:02.391Z,83.65516389875023
2023-02-06T19:45:02.049Z,80.60492352595841
2023-02-06T20:00:01.708Z,81.97277519120199
2023-02-06T20:15:02.344Z,82.33743060994804
2023-02-06T20:30:02.087Z,82.22521467765887
2023-02-06T20:45:01.717Z,81.94594807847156
2023-02-06T21:00:02.371Z,81.70593779635237
2023-02-06T21:15:02.031Z,81.16035384780618
2023-02-06T21:30:01.947Z,81.60527588225874
2023-02-06T21:45:01.642Z,80.96882910224357
2023-02-06T22:00:02.304Z,81.31910120369389
2023-02-06T22:15:01.942Z,81.37601331582127
2023-02-06T22:30:01.686Z,81.2086707388377
2023-02-06T22:45:02.329Z,81.27737954683472
2023-02-06T23:00:02.066Z,81.0519060646155
2023-02-06T23:15:01.747Z,81.21171653138387
2023-02-06T23:30:02.425Z,80.64767156531109
2023-02-06T23:45:02.076Z,79.69874982111047
